sensor_id;sensor_type;location;lat;lon;timestamp;P1;durP1;ratioP1;P2;durP2;ratioP2
39958;SDS011;25639;53.634;9.880;2023-04-09T00:00:41;140.35;;;65.07;;
39958;SDS011;25639;53.634;9.880;2023-04-09T00:03:06;141.45;;;64.57;;
39958;SDS011;25639;53.634;9.880;2023-04-09T00:05:32;131.18;;;61.15;;
39958;SDS011;25639;53.634;9.880;2023-04-09T00:07:57;136.02;;;63.20;;
39958;SDS011;25639;53.634;9.880;2023-04-09T00:10:22;130.93;;;63.50;;
39958;SDS011;25639;53.634;9.880;2023-04-09T00:12:48;143.95;;;63.80;;
39958;SDS011;25639;53.634;9.880;2023-04-09T00:15:13;147.27;;;64.90;;
39958;SDS011;25639;53.634;9.880;2023-04-09T00:17:38;141.73;;;66.57;;
39958;SDS011;25639;53.634;9.880;2023-04-09T00:20:04;142.75;;;66.38;;
39958;SDS011;25639;53.634;9.880;2023-04-09T00:22:29;131.90;;;58.90;;
39958;SDS011;25639;53.634;9.880;2023-04-09T00:24:55;133.63;;;63.10;;
39958;SDS011;25639;53.634;9.880;2023-04-09T00:27:21;156.00;;;69.40;;
39958;SDS011;25639;53.634;9.880;2023-04-09T00:29:47;135.13;;;64.97;;
39958;SDS011;25639;53.634;9.880;2023-04-09T00:32:12;130.10;;;62.53;;
39958;SDS011;25639;53.634;9.880;2023-04-09T00:34:37;139.70;;;64.80;;
39958;SDS011;25639;53.634;9.880;2023-04-09T00:37:03;153.50;;;66.00;;
39958;SDS011;25639;53.634;9.880;2023-04-09T00:39:29;142.18;;;63.42;;
39958;SDS011;25639;53.634;9.880;2023-04-09T00:41:58;144.40;;;62.08;;
39958;SDS011;25639;53.634;9.880;2023-04-09T00:44:26;135.98;;;61.00;;
39958;SDS011;25639;53.634;9.880;2023-04-09T00:46:51;153.35;;;64.72;;
39958;SDS011;25639;53.634;9.880;2023-04-09T00:49:17;147.23;;;63.42;;
39958;SDS011;25639;53.634;9.880;2023-04-09T00:51:43;154.75;;;65.65;;
39958;SDS011;25639;53.634;9.880;2023-04-09T00:54:10;157.50;;;66.85;;
39958;SDS011;25639;53.634;9.880;2023-04-09T00:56:36;160.82;;;65.80;;
39958;SDS011;25639;53.634;9.880;2023-04-09T00:59:02;152.93;;;65.15;;
39958;SDS011;25639;53.634;9.880;2023-04-09T01:01:28;161.77;;;67.85;;
39958;SDS011;25639;53.634;9.880;2023-04-09T01:03:53;144.90;;;61.10;;
39958;SDS011;25639;53.634;9.880;2023-04-09T01:11:37;161.57;;;65.70;;
39958;SDS011;25639;53.634;9.880;2023-04-09T01:16:54;171.55;;;69.40;;
39958;SDS011;25639;53.634;9.880;2023-04-09T01:19:31;190.60;;;72.65;;
39958;SDS011;25639;53.634;9.880;2023-04-09T01:22:03;189.20;;;73.45;;
39958;SDS011;25639;53.634;9.880;2023-04-09T01:24:39;200.82;;;75.95;;
39958;SDS011;25639;53.634;9.880;2023-04-09T01:27:11;167.32;;;68.60;;
39958;SDS011;25639;53.634;9.880;2023-04-09T01:29:40;206.05;;;73.13;;
39958;SDS011;25639;53.634;9.880;2023-04-09T01:32:10;190.23;;;70.78;;
39958;SDS011;25639;53.634;9.880;2023-04-09T01:34:38;189.77;;;69.13;;
39958;SDS011;25639;53.634;9.880;2023-04-09T01:37:05;190.00;;;72.03;;
39958;SDS011;25639;53.634;9.880;2023-04-09T01:39:31;205.68;;;70.60;;
39958;SDS011;25639;53.634;9.880;2023-04-09T01:41:56;193.10;;;71.03;;
39958;SDS011;25639;53.634;9.880;2023-04-09T01:44:22;208.40;;;72.78;;
39958;SDS011;25639;53.634;9.880;2023-04-09T01:46:48;211.82;;;73.25;;
39958;SDS011;25639;53.634;9.880;2023-04-09T01:49:16;211.90;;;71.28;;
39958;SDS011;25639;53.634;9.880;2023-04-09T01:51:42;191.60;;;69.43;;
39958;SDS011;25639;53.634;9.880;2023-04-09T01:54:08;185.32;;;62.55;;
39958;SDS011;25639;53.634;9.880;2023-04-09T01:56:40;203.88;;;66.93;;
39958;SDS011;25639;53.634;9.880;2023-04-09T01:59:07;178.63;;;62.63;;
39958;SDS011;25639;53.634;9.880;2023-04-09T02:01:34;201.63;;;66.20;;
39958;SDS011;25639;53.634;9.880;2023-04-09T02:04:08;204.82;;;63.13;;
39958;SDS011;25639;53.634;9.880;2023-04-09T02:06:45;198.90;;;62.28;;
39958;SDS011;25639;53.634;9.880;2023-04-09T02:09:17;190.00;;;60.03;;
39958;SDS011;25639;53.634;9.880;2023-04-09T02:11:44;197.75;;;59.83;;
39958;SDS011;25639;53.634;9.880;2023-04-09T02:14:11;162.25;;;56.20;;
39958;SDS011;25639;53.634;9.880;2023-04-09T02:16:37;176.82;;;58.83;;
39958;SDS011;25639;53.634;9.880;2023-04-09T02:19:03;164.43;;;55.58;;
39958;SDS011;25639;53.634;9.880;2023-04-09T02:21:29;165.52;;;53.05;;
39958;SDS011;25639;53.634;9.880;2023-04-09T02:23:56;155.18;;;51.38;;
39958;SDS011;25639;53.634;9.880;2023-04-09T02:26:21;170.18;;;54.50;;
39958;SDS011;25639;53.634;9.880;2023-04-09T02:28:47;177.52;;;56.80;;
39958;SDS011;25639;53.634;9.880;2023-04-09T02:31:12;169.88;;;54.97;;
39958;SDS011;25639;53.634;9.880;2023-04-09T02:33:38;170.50;;;54.83;;
39958;SDS011;25639;53.634;9.880;2023-04-09T02:36:03;157.43;;;52.47;;
39958;SDS011;25639;53.634;9.880;2023-04-09T02:38:29;163.25;;;51.90;;
39958;SDS011;25639;53.634;9.880;2023-04-09T02:40:55;163.27;;;54.08;;
39958;SDS011;25639;53.634;9.880;2023-04-09T02:43:20;172.55;;;53.42;;
39958;SDS011;25639;53.634;9.880;2023-04-09T02:45:46;182.40;;;55.05;;
39958;SDS011;25639;53.634;9.880;2023-04-09T02:48:11;203.60;;;58.50;;
39958;SDS011;25639;53.634;9.880;2023-04-09T02:50:36;190.60;;;57.75;;
39958;SDS011;25639;53.634;9.880;2023-04-09T02:53:01;173.20;;;56.13;;
39958;SDS011;25639;53.634;9.880;2023-04-09T02:55:27;159.93;;;51.45;;
39958;SDS011;25639;53.634;9.880;2023-04-09T02:57:52;164.32;;;53.20;;
39958;SDS011;25639;53.634;9.880;2023-04-09T03:00:18;162.95;;;51.00;;
39958;SDS011;25639;53.634;9.880;2023-04-09T03:02:43;150.52;;;49.58;;
39958;SDS011;25639;53.634;9.880;2023-04-09T03:05:08;146.90;;;49.13;;
39958;SDS011;25639;53.634;9.880;2023-04-09T03:07:33;149.77;;;49.15;;
39958;SDS011;25639;53.634;9.880;2023-04-09T03:09:59;144.38;;;48.72;;
39958;SDS011;25639;53.634;9.880;2023-04-09T03:12:24;153.02;;;51.10;;
39958;SDS011;25639;53.634;9.880;2023-04-09T03:14:49;153.32;;;51.97;;
39958;SDS011;25639;53.634;9.880;2023-04-09T03:17:15;147.90;;;49.78;;
39958;SDS011;25639;53.634;9.880;2023-04-09T03:19:40;144.27;;;48.10;;
39958;SDS011;25639;53.634;9.880;2023-04-09T03:22:05;148.95;;;49.15;;
39958;SDS011;25639;53.634;9.880;2023-04-09T03:24:31;154.73;;;50.30;;
39958;SDS011;25639;53.634;9.880;2023-04-09T03:26:57;141.32;;;47.28;;
39958;SDS011;25639;53.634;9.880;2023-04-09T03:29:22;144.25;;;49.03;;
39958;SDS011;25639;53.634;9.880;2023-04-09T03:31:48;133.35;;;45.15;;
39958;SDS011;25639;53.634;9.880;2023-04-09T03:34:13;127.10;;;45.22;;
39958;SDS011;25639;53.634;9.880;2023-04-09T03:36:38;128.75;;;44.58;;
39958;SDS011;25639;53.634;9.880;2023-04-09T03:39:03;128.13;;;45.47;;
39958;SDS011;25639;53.634;9.880;2023-04-09T03:41:29;124.53;;;44.17;;
39958;SDS011;25639;53.634;9.880;2023-04-09T03:43:54;130.32;;;46.47;;
39958;SDS011;25639;53.634;9.880;2023-04-09T03:46:20;118.18;;;43.20;;
39958;SDS011;25639;53.634;9.880;2023-04-09T03:48:45;107.07;;;42.70;;
39958;SDS011;25639;53.634;9.880;2023-04-09T03:51:11;125.18;;;45.92;;
39958;SDS011;25639;53.634;9.880;2023-04-09T03:53:37;110.22;;;42.95;;
39958;SDS011;25639;53.634;9.880;2023-04-09T03:56:02;135.10;;;47.38;;
39958;SDS011;25639;53.634;9.880;2023-04-09T03:58:28;116.90;;;43.47;;
39958;SDS011;25639;53.634;9.880;2023-04-09T04:00:53;123.03;;;44.35;;
39958;SDS011;25639;53.634;9.880;2023-04-09T04:03:18;118.93;;;43.35;;
39958;SDS011;25639;53.634;9.880;2023-04-09T04:05:44;125.75;;;46.42;;
39958;SDS011;25639;53.634;9.880;2023-04-09T04:08:09;132.73;;;47.00;;
39958;SDS011;25639;53.634;9.880;2023-04-09T04:10:34;138.30;;;46.63;;
39958;SDS011;25639;53.634;9.880;2023-04-09T04:13:00;141.20;;;48.25;;
39958;SDS011;25639;53.634;9.880;2023-04-09T04:15:26;122.70;;;45.58;;
39958;SDS011;25639;53.634;9.880;2023-04-09T04:17:51;127.63;;;45.63;;
39958;SDS011;25639;53.634;9.880;2023-04-09T04:20:17;146.60;;;48.65;;
39958;SDS011;25639;53.634;9.880;2023-04-09T04:22:42;143.98;;;50.50;;
39958;SDS011;25639;53.634;9.880;2023-04-09T04:25:07;147.48;;;50.20;;
39958;SDS011;25639;53.634;9.880;2023-04-09T04:27:33;139.32;;;49.17;;
39958;SDS011;25639;53.634;9.880;2023-04-09T04:29:58;135.10;;;47.75;;
39958;SDS011;25639;53.634;9.880;2023-04-09T04:32:24;147.85;;;49.13;;
39958;SDS011;25639;53.634;9.880;2023-04-09T04:34:50;124.13;;;45.17;;
39958;SDS011;25639;53.634;9.880;2023-04-09T04:37:15;135.60;;;47.70;;
39958;SDS011;25639;53.634;9.880;2023-04-09T04:39:40;141.95;;;47.85;;
39958;SDS011;25639;53.634;9.880;2023-04-09T04:42:05;137.18;;;46.20;;
39958;SDS011;25639;53.634;9.880;2023-04-09T04:44:31;164.85;;;51.00;;
39958;SDS011;25639;53.634;9.880;2023-04-09T04:46:56;144.50;;;49.22;;
39958;SDS011;25639;53.634;9.880;2023-04-09T04:49:21;155.35;;;51.78;;
39958;SDS011;25639;53.634;9.880;2023-04-09T04:51:46;140.05;;;49.08;;
39958;SDS011;25639;53.634;9.880;2023-04-09T04:54:12;158.55;;;51.65;;
39958;SDS011;25639;53.634;9.880;2023-04-09T04:56:37;163.60;;;51.85;;
39958;SDS011;25639;53.634;9.880;2023-04-09T04:59:02;148.93;;;50.95;;
39958;SDS011;25639;53.634;9.880;2023-04-09T05:01:27;160.60;;;50.13;;
39958;SDS011;25639;53.634;9.880;2023-04-09T05:03:53;167.57;;;52.88;;
39958;SDS011;25639;53.634;9.880;2023-04-09T05:06:18;164.73;;;53.25;;
39958;SDS011;25639;53.634;9.880;2023-04-09T05:08:43;171.73;;;53.08;;
39958;SDS011;25639;53.634;9.880;2023-04-09T05:11:12;165.50;;;53.33;;
39958;SDS011;25639;53.634;9.880;2023-04-09T05:13:39;182.45;;;54.65;;
39958;SDS011;25639;53.634;9.880;2023-04-09T05:16:04;176.65;;;55.33;;
39958;SDS011;25639;53.634;9.880;2023-04-09T05:18:30;193.43;;;56.88;;
39958;SDS011;25639;53.634;9.880;2023-04-09T05:20:55;167.73;;;54.42;;
39958;SDS011;25639;53.634;9.880;2023-04-09T05:23:20;174.43;;;54.75;;
39958;SDS011;25639;53.634;9.880;2023-04-09T05:25:47;173.02;;;53.63;;
39958;SDS011;25639;53.634;9.880;2023-04-09T05:28:13;192.65;;;56.65;;
39958;SDS011;25639;53.634;9.880;2023-04-09T05:30:40;190.43;;;56.28;;
39958;SDS011;25639;53.634;9.880;2023-04-09T05:33:06;174.50;;;55.40;;
39958;SDS011;25639;53.634;9.880;2023-04-09T05:35:31;189.30;;;57.55;;
39958;SDS011;25639;53.634;9.880;2023-04-09T05:37:56;178.75;;;52.67;;
39958;SDS011;25639;53.634;9.880;2023-04-09T05:40:21;191.88;;;55.88;;
39958;SDS011;25639;53.634;9.880;2023-04-09T05:42:47;178.00;;;53.58;;
39958;SDS011;25639;53.634;9.880;2023-04-09T05:45:12;195.90;;;54.50;;
39958;SDS011;25639;53.634;9.880;2023-04-09T05:47:37;195.55;;;55.80;;
39958;SDS011;25639;53.634;9.880;2023-04-09T05:50:03;189.68;;;55.13;;
39958;SDS011;25639;53.634;9.880;2023-04-09T05:52:29;190.05;;;53.78;;
39958;SDS011;25639;53.634;9.880;2023-04-09T05:54:54;177.07;;;50.97;;
39958;SDS011;25639;53.634;9.880;2023-04-09T05:57:20;186.43;;;51.67;;
39958;SDS011;25639;53.634;9.880;2023-04-09T05:59:45;183.93;;;54.45;;
39958;SDS011;25639;53.634;9.880;2023-04-09T06:02:10;190.45;;;53.25;;
39958;SDS011;25639;53.634;9.880;2023-04-09T06:04:35;168.45;;;50.65;;
39958;SDS011;25639;53.634;9.880;2023-04-09T06:07:01;175.23;;;50.38;;
39958;SDS011;25639;53.634;9.880;2023-04-09T06:09:26;186.55;;;50.33;;
39958;SDS011;25639;53.634;9.880;2023-04-09T06:11:51;181.80;;;49.08;;
39958;SDS011;25639;53.634;9.880;2023-04-09T06:14:17;168.38;;;49.78;;
39958;SDS011;25639;53.634;9.880;2023-04-09T06:16:42;178.50;;;48.83;;
39958;SDS011;25639;53.634;9.880;2023-04-09T06:19:07;181.20;;;50.17;;
39958;SDS011;25639;53.634;9.880;2023-04-09T06:21:33;167.15;;;48.97;;
39958;SDS011;25639;53.634;9.880;2023-04-09T06:23:58;185.18;;;50.92;;
39958;SDS011;25639;53.634;9.880;2023-04-09T06:26:23;177.05;;;47.95;;
39958;SDS011;25639;53.634;9.880;2023-04-09T06:28:48;175.38;;;49.42;;
39958;SDS011;25639;53.634;9.880;2023-04-09T06:31:14;172.43;;;48.38;;
39958;SDS011;25639;53.634;9.880;2023-04-09T06:33:39;180.25;;;50.22;;
39958;SDS011;25639;53.634;9.880;2023-04-09T06:36:05;167.25;;;49.10;;
39958;SDS011;25639;53.634;9.880;2023-04-09T06:38:30;157.63;;;46.83;;
39958;SDS011;25639;53.634;9.880;2023-04-09T06:40:56;171.98;;;49.17;;
39958;SDS011;25639;53.634;9.880;2023-04-09T06:43:21;164.90;;;48.58;;
39958;SDS011;25639;53.634;9.880;2023-04-09T06:45:46;170.27;;;50.22;;
39958;SDS011;25639;53.634;9.880;2023-04-09T06:48:12;170.27;;;48.58;;
39958;SDS011;25639;53.634;9.880;2023-04-09T06:50:37;171.35;;;49.47;;
39958;SDS011;25639;53.634;9.880;2023-04-09T06:53:05;147.38;;;45.00;;
39958;SDS011;25639;53.634;9.880;2023-04-09T06:55:30;154.85;;;45.22;;
39958;SDS011;25639;53.634;9.880;2023-04-09T06:57:56;157.63;;;47.67;;
39958;SDS011;25639;53.634;9.880;2023-04-09T07:00:21;145.50;;;45.78;;
39958;SDS011;25639;53.634;9.880;2023-04-09T07:02:47;140.60;;;45.25;;
39958;SDS011;25639;53.634;9.880;2023-04-09T07:05:13;149.90;;;46.30;;
39958;SDS011;25639;53.634;9.880;2023-04-09T07:07:38;138.15;;;43.53;;
39958;SDS011;25639;53.634;9.880;2023-04-09T07:10:03;140.32;;;44.63;;
39958;SDS011;25639;53.634;9.880;2023-04-09T07:12:30;121.00;;;40.25;;
39958;SDS011;25639;53.634;9.880;2023-04-09T07:14:57;122.68;;;41.55;;
39958;SDS011;25639;53.634;9.880;2023-04-09T07:17:23;120.63;;;40.58;;
39958;SDS011;25639;53.634;9.880;2023-04-09T07:19:48;118.68;;;41.90;;
39958;SDS011;25639;53.634;9.880;2023-04-09T07:22:15;123.03;;;42.38;;
39958;SDS011;25639;53.634;9.880;2023-04-09T07:24:40;111.90;;;40.15;;
39958;SDS011;25639;53.634;9.880;2023-04-09T07:27:06;109.25;;;38.75;;
39958;SDS011;25639;53.634;9.880;2023-04-09T07:29:31;107.53;;;39.05;;
39958;SDS011;25639;53.634;9.880;2023-04-09T07:31:57;115.43;;;39.03;;
39958;SDS011;25639;53.634;9.880;2023-04-09T07:34:22;104.43;;;37.80;;
39958;SDS011;25639;53.634;9.880;2023-04-09T07:36:47;100.75;;;37.17;;
39958;SDS011;25639;53.634;9.880;2023-04-09T07:39:12;112.55;;;40.08;;
39958;SDS011;25639;53.634;9.880;2023-04-09T07:41:38;99.93;;;35.80;;
39958;SDS011;25639;53.634;9.880;2023-04-09T07:44:03;99.07;;;36.80;;
39958;SDS011;25639;53.634;9.880;2023-04-09T07:46:30;98.35;;;35.80;;
39958;SDS011;25639;53.634;9.880;2023-04-09T07:48:55;89.03;;;34.85;;
39958;SDS011;25639;53.634;9.880;2023-04-09T07:51:20;78.55;;;31.58;;
39958;SDS011;25639;53.634;9.880;2023-04-09T07:53:46;80.00;;;31.95;;
39958;SDS011;25639;53.634;9.880;2023-04-09T07:56:11;90.53;;;34.45;;
39958;SDS011;25639;53.634;9.880;2023-04-09T07:58:36;85.35;;;33.55;;
39958;SDS011;25639;53.634;9.880;2023-04-09T08:01:02;70.03;;;30.40;;
39958;SDS011;25639;53.634;9.880;2023-04-09T08:03:27;76.45;;;32.00;;
39958;SDS011;25639;53.634;9.880;2023-04-09T08:05:53;75.03;;;30.70;;
39958;SDS011;25639;53.634;9.880;2023-04-09T08:08:18;70.15;;;29.00;;
39958;SDS011;25639;53.634;9.880;2023-04-09T08:10:44;69.53;;;28.08;;
39958;SDS011;25639;53.634;9.880;2023-04-09T08:13:09;71.60;;;29.20;;
39958;SDS011;25639;53.634;9.880;2023-04-09T08:15:34;63.75;;;27.38;;
39958;SDS011;25639;53.634;9.880;2023-04-09T08:18:00;65.93;;;27.67;;
39958;SDS011;25639;53.634;9.880;2023-04-09T08:20:27;61.40;;;27.13;;
39958;SDS011;25639;53.634;9.880;2023-04-09T08:22:53;44.40;;;21.15;;
39958;SDS011;25639;53.634;9.880;2023-04-09T08:25:18;42.35;;;19.33;;
39958;SDS011;25639;53.634;9.880;2023-04-09T08:27:43;54.40;;;24.17;;
39958;SDS011;25639;53.634;9.880;2023-04-09T08:30:09;52.17;;;23.45;;
39958;SDS011;25639;53.634;9.880;2023-04-09T08:32:35;50.47;;;22.48;;
39958;SDS011;25639;53.634;9.880;2023-04-09T08:35:00;52.13;;;22.67;;
39958;SDS011;25639;53.634;9.880;2023-04-09T08:37:26;47.28;;;21.38;;
39958;SDS011;25639;53.634;9.880;2023-04-09T08:39:51;41.38;;;18.40;;
39958;SDS011;25639;53.634;9.880;2023-04-09T08:42:16;48.30;;;20.52;;
39958;SDS011;25639;53.634;9.880;2023-04-09T08:44:43;46.25;;;20.45;;
39958;SDS011;25639;53.634;9.880;2023-04-09T08:47:09;45.20;;;19.30;;
39958;SDS011;25639;53.634;9.880;2023-04-09T08:49:38;42.30;;;19.42;;
39958;SDS011;25639;53.634;9.880;2023-04-09T08:52:04;38.25;;;17.52;;
39958;SDS011;25639;53.634;9.880;2023-04-09T08:54:30;32.33;;;15.60;;
39958;SDS011;25639;53.634;9.880;2023-04-09T08:56:56;37.00;;;17.75;;
39958;SDS011;25639;53.634;9.880;2023-04-09T08:59:21;41.78;;;17.45;;
39958;SDS011;25639;53.634;9.880;2023-04-09T09:01:46;42.42;;;18.90;;
39958;SDS011;25639;53.634;9.880;2023-04-09T09:04:17;34.60;;;16.73;;
39958;SDS011;25639;53.634;9.880;2023-04-09T09:06:43;31.10;;;15.23;;
39958;SDS011;25639;53.634;9.880;2023-04-09T09:09:10;33.35;;;15.75;;
39958;SDS011;25639;53.634;9.880;2023-04-09T09:11:37;43.20;;;17.08;;
39958;SDS011;25639;53.634;9.880;2023-04-09T09:14:05;40.55;;;18.45;;
39958;SDS011;25639;53.634;9.880;2023-04-09T09:16:33;38.97;;;17.45;;
39958;SDS011;25639;53.634;9.880;2023-04-09T09:19:00;37.95;;;17.63;;
39958;SDS011;25639;53.634;9.880;2023-04-09T09:21:27;44.60;;;19.40;;
39958;SDS011;25639;53.634;9.880;2023-04-09T09:23:53;37.72;;;18.02;;
39958;SDS011;25639;53.634;9.880;2023-04-09T09:26:28;35.40;;;16.55;;
39958;SDS011;25639;53.634;9.880;2023-04-09T09:28:55;37.30;;;17.88;;
39958;SDS011;25639;53.634;9.880;2023-04-09T09:31:24;43.65;;;19.05;;
39958;SDS011;25639;53.634;9.880;2023-04-09T09:33:51;42.45;;;18.30;;
39958;SDS011;25639;53.634;9.880;2023-04-09T09:36:29;43.38;;;18.88;;
39958;SDS011;25639;53.634;9.880;2023-04-09T09:38:58;40.55;;;18.88;;
39958;SDS011;25639;53.634;9.880;2023-04-09T09:41:27;42.47;;;18.95;;
39958;SDS011;25639;53.634;9.880;2023-04-09T09:43:53;40.42;;;19.23;;
39958;SDS011;25639;53.634;9.880;2023-04-09T09:46:18;37.85;;;18.17;;
39958;SDS011;25639;53.634;9.880;2023-04-09T09:48:45;38.28;;;18.05;;
39958;SDS011;25639;53.634;9.880;2023-04-09T09:51:11;35.33;;;16.23;;
39958;SDS011;25639;53.634;9.880;2023-04-09T09:53:38;38.30;;;18.75;;
39958;SDS011;25639;53.634;9.880;2023-04-09T09:56:05;38.45;;;18.08;;
39958;SDS011;25639;53.634;9.880;2023-04-09T09:58:38;38.08;;;17.85;;
39958;SDS011;25639;53.634;9.880;2023-04-09T10:01:08;49.10;;;21.13;;
39958;SDS011;25639;53.634;9.880;2023-04-09T10:03:37;48.55;;;21.75;;
39958;SDS011;25639;53.634;9.880;2023-04-09T10:06:04;45.25;;;20.80;;
39958;SDS011;25639;53.634;9.880;2023-04-09T10:08:30;49.25;;;22.90;;
39958;SDS011;25639;53.634;9.880;2023-04-09T10:10:58;54.60;;;24.08;;
39958;SDS011;25639;53.634;9.880;2023-04-09T10:13:39;50.05;;;24.60;;
39958;SDS011;25639;53.634;9.880;2023-04-09T10:16:07;52.55;;;24.38;;
39958;SDS011;25639;53.634;9.880;2023-04-09T10:18:33;45.92;;;21.48;;
39958;SDS011;25639;53.634;9.880;2023-04-09T10:24:02;44.45;;;21.33;;
39958;SDS011;25639;53.634;9.880;2023-04-09T10:26:31;46.45;;;22.83;;
39958;SDS011;25639;53.634;9.880;2023-04-09T10:29:14;47.80;;;22.90;;
39958;SDS011;25639;53.634;9.880;2023-04-09T10:31:53;59.08;;;31.08;;
39958;SDS011;25639;53.634;9.880;2023-04-09T10:34:27;74.40;;;35.65;;
39958;SDS011;25639;53.634;9.880;2023-04-09T10:36:54;70.18;;;36.25;;
39958;SDS011;25639;53.634;9.880;2023-04-09T10:39:31;68.97;;;33.92;;
39958;SDS011;25639;53.634;9.880;2023-04-09T10:41:57;63.42;;;31.48;;
39958;SDS011;25639;53.634;9.880;2023-04-09T10:44:26;65.55;;;33.45;;
39958;SDS011;25639;53.634;9.880;2023-04-09T10:46:53;73.70;;;34.92;;
39958;SDS011;25639;53.634;9.880;2023-04-09T10:49:19;63.15;;;31.33;;
39958;SDS011;25639;53.634;9.880;2023-04-09T10:57:18;70.07;;;30.00;;
39958;SDS011;25639;53.634;9.880;2023-04-09T10:59:52;125.28;;;37.15;;
39958;SDS011;25639;53.634;9.880;2023-04-09T11:07:39;52.60;;;27.20;;
39958;SDS011;25639;53.634;9.880;2023-04-09T11:10:08;53.35;;;26.35;;
39958;SDS011;25639;53.634;9.880;2023-04-09T11:12:33;49.45;;;24.65;;
39958;SDS011;25639;53.634;9.880;2023-04-09T11:14:58;46.80;;;23.83;;
39958;SDS011;25639;53.634;9.880;2023-04-09T11:17:24;51.17;;;23.92;;
39958;SDS011;25639;53.634;9.880;2023-04-09T11:19:49;44.75;;;23.80;;
39958;SDS011;25639;53.634;9.880;2023-04-09T11:22:15;48.85;;;24.00;;
39958;SDS011;25639;53.634;9.880;2023-04-09T11:24:40;47.05;;;23.38;;
39958;SDS011;25639;53.634;9.880;2023-04-09T11:27:06;49.97;;;22.90;;
39958;SDS011;25639;53.634;9.880;2023-04-09T11:29:33;46.92;;;22.27;;
39958;SDS011;25639;53.634;9.880;2023-04-09T11:31:59;47.55;;;25.17;;
39958;SDS011;25639;53.634;9.880;2023-04-09T11:34:28;48.90;;;23.98;;
39958;SDS011;25639;53.634;9.880;2023-04-09T11:36:53;47.33;;;24.73;;
39958;SDS011;25639;53.634;9.880;2023-04-09T12:20:39;40.53;;;22.65;;
39958;SDS011;25639;53.634;9.880;2023-04-09T12:23:08;40.55;;;22.30;;
39958;SDS011;25639;53.634;9.880;2023-04-09T12:25:34;39.97;;;22.90;;
39958;SDS011;25639;53.634;9.880;2023-04-09T12:28:05;41.63;;;22.65;;
39958;SDS011;25639;53.634;9.880;2023-04-09T12:30:32;41.55;;;22.92;;
39958;SDS011;25639;53.634;9.880;2023-04-09T12:32:58;42.35;;;22.70;;
39958;SDS011;25639;53.634;9.880;2023-04-09T12:35:23;41.75;;;23.50;;
39958;SDS011;25639;53.634;9.880;2023-04-09T12:37:49;45.55;;;24.25;;
39958;SDS011;25639;53.634;9.880;2023-04-09T12:40:15;40.17;;;22.20;;
39958;SDS011;25639;53.634;9.880;2023-04-09T12:42:41;41.92;;;23.02;;
39958;SDS011;25639;53.634;9.880;2023-04-09T12:45:11;46.90;;;26.55;;
39958;SDS011;25639;53.634;9.880;2023-04-09T12:47:38;45.22;;;25.00;;
39958;SDS011;25639;53.634;9.880;2023-04-09T12:50:04;40.60;;;22.30;;
39958;SDS011;25639;53.634;9.880;2023-04-09T12:52:30;40.03;;;22.52;;
39958;SDS011;25639;53.634;9.880;2023-04-09T12:54:55;42.88;;;23.55;;
39958;SDS011;25639;53.634;9.880;2023-04-09T12:57:23;40.35;;;22.58;;
39958;SDS011;25639;53.634;9.880;2023-04-09T12:59:49;40.83;;;22.20;;
39958;SDS011;25639;53.634;9.880;2023-04-09T13:02:15;47.33;;;25.00;;
39958;SDS011;25639;53.634;9.880;2023-04-09T13:04:41;46.35;;;26.48;;
39958;SDS011;25639;53.634;9.880;2023-04-09T13:07:06;43.50;;;24.88;;
39958;SDS011;25639;53.634;9.880;2023-04-09T13:09:32;43.90;;;24.65;;
39958;SDS011;25639;53.634;9.880;2023-04-09T13:11:59;42.80;;;22.75;;
39958;SDS011;25639;53.634;9.880;2023-04-09T13:14:25;44.97;;;24.08;;
39958;SDS011;25639;53.634;9.880;2023-04-09T13:16:50;43.33;;;24.15;;
39958;SDS011;25639;53.634;9.880;2023-04-09T13:19:18;44.70;;;23.63;;
39958;SDS011;25639;53.634;9.880;2023-04-09T13:21:45;41.55;;;24.15;;
39958;SDS011;25639;53.634;9.880;2023-04-09T13:24:13;45.83;;;25.60;;
39958;SDS011;25639;53.634;9.880;2023-04-09T13:26:38;41.33;;;23.83;;
39958;SDS011;25639;53.634;9.880;2023-04-09T13:29:05;48.85;;;24.67;;
39958;SDS011;25639;53.634;9.880;2023-04-09T13:31:31;45.55;;;25.98;;
39958;SDS011;25639;53.634;9.880;2023-04-09T13:33:57;46.78;;;25.98;;
39958;SDS011;25639;53.634;9.880;2023-04-09T13:36:23;44.67;;;24.00;;
39958;SDS011;25639;53.634;9.880;2023-04-09T13:38:48;45.22;;;24.63;;
39958;SDS011;25639;53.634;9.880;2023-04-09T13:41:13;46.35;;;25.00;;
39958;SDS011;25639;53.634;9.880;2023-04-09T13:43:39;44.63;;;23.80;;
39958;SDS011;25639;53.634;9.880;2023-04-09T13:46:04;45.65;;;23.58;;
39958;SDS011;25639;53.634;9.880;2023-04-09T13:48:30;40.95;;;22.02;;
39958;SDS011;25639;53.634;9.880;2023-04-09T13:50:55;36.90;;;20.73;;
39958;SDS011;25639;53.634;9.880;2023-04-09T13:53:21;39.78;;;21.98;;
39958;SDS011;25639;53.634;9.880;2023-04-09T13:55:48;41.08;;;20.77;;
39958;SDS011;25639;53.634;9.880;2023-04-09T13:58:13;33.75;;;20.05;;
39958;SDS011;25639;53.634;9.880;2023-04-09T14:00:38;39.33;;;20.05;;
39958;SDS011;25639;53.634;9.880;2023-04-09T14:03:04;37.20;;;20.13;;
39958;SDS011;25639;53.634;9.880;2023-04-09T14:05:29;35.22;;;20.02;;
39958;SDS011;25639;53.634;9.880;2023-04-09T14:07:56;37.47;;;20.77;;
39958;SDS011;25639;53.634;9.880;2023-04-09T14:10:22;45.10;;;23.33;;
39958;SDS011;25639;53.634;9.880;2023-04-09T14:12:47;38.30;;;20.17;;
39958;SDS011;25639;53.634;9.880;2023-04-09T14:15:12;36.08;;;20.45;;
39958;SDS011;25639;53.634;9.880;2023-04-09T14:17:38;42.65;;;21.25;;
39958;SDS011;25639;53.634;9.880;2023-04-09T14:20:03;39.92;;;21.40;;
39958;SDS011;25639;53.634;9.880;2023-04-09T14:22:29;33.63;;;19.38;;
39958;SDS011;25639;53.634;9.880;2023-04-09T14:24:55;41.03;;;21.05;;
39958;SDS011;25639;53.634;9.880;2023-04-09T14:27:20;43.83;;;22.35;;
39958;SDS011;25639;53.634;9.880;2023-04-09T14:29:46;45.00;;;22.17;;
39958;SDS011;25639;53.634;9.880;2023-04-09T14:32:11;39.88;;;20.60;;
39958;SDS011;25639;53.634;9.880;2023-04-09T14:34:36;41.95;;;21.23;;
39958;SDS011;25639;53.634;9.880;2023-04-09T14:37:01;35.38;;;19.70;;
39958;SDS011;25639;53.634;9.880;2023-04-09T14:39:27;38.00;;;20.30;;
39958;SDS011;25639;53.634;9.880;2023-04-09T14:41:52;42.15;;;24.60;;
39958;SDS011;25639;53.634;9.880;2023-04-09T14:44:18;43.80;;;22.33;;
39958;SDS011;25639;53.634;9.880;2023-04-09T14:46:44;43.17;;;21.58;;
39958;SDS011;25639;53.634;9.880;2023-04-09T14:49:09;44.08;;;22.17;;
39958;SDS011;25639;53.634;9.880;2023-04-09T14:51:35;40.38;;;21.05;;
39958;SDS011;25639;53.634;9.880;2023-04-09T14:54:01;41.63;;;20.95;;
39958;SDS011;25639;53.634;9.880;2023-04-09T14:56:26;39.58;;;20.75;;
39958;SDS011;25639;53.634;9.880;2023-04-09T14:58:51;43.03;;;22.42;;
39958;SDS011;25639;53.634;9.880;2023-04-09T15:01:17;40.90;;;20.17;;
39958;SDS011;25639;53.634;9.880;2023-04-09T15:03:42;36.40;;;20.88;;
39958;SDS011;25639;53.634;9.880;2023-04-09T15:06:08;38.58;;;20.27;;
39958;SDS011;25639;53.634;9.880;2023-04-09T15:08:35;38.78;;;20.88;;
39958;SDS011;25639;53.634;9.880;2023-04-09T15:11:00;43.00;;;21.00;;